.
WxDataArchive / Data Records for 2012-11-23
2012-11-22 November 2012 2012-11-24

Data Records for Friday, 23 November 2012

Time	Temp	Chill	HIndex	Humid	Dewpt	 Wind 	HiWind	WindDir	Rain 	Barom 
-----	----	-----	------	-----	-----	------	------	-------	-----	----- 
00:00	56.2	56.2	56.2	54	39.8	3	9	248	0.00	29.839 
00:05	56.0	56.0	56.0	56	40.5	3	7	248	0.00	29.839 
00:10	55.9	55.9	55.9	57	40.9	3	7	248	0.00	29.839 
00:15	55.7	55.7	55.7	58	41.2	1	5	248	0.00	29.835 
00:20	55.6	55.6	55.6	60	41.9	3	9	248	0.00	29.835 
00:25	55.6	55.6	55.6	61	42.4	4	10	248	0.00	29.835 
00:30	55.4	55.4	55.4	62	42.6	3	10	248	0.00	29.832 
00:35	55.3	55.3	55.3	64	43.3	3	12	248	0.00	29.832 
00:40	54.8	54.8	54.8	67	44.1	3	9	248	0.00	29.832 
00:45	54.5	54.5	54.5	69	44.5	4	13	248	0.00	29.828 
00:50	54.4	54.4	54.4	70	44.8	4	7	248	0.00	29.828 
00:55	54.4	54.4	54.4	71	45.2	5	12	248	0.00	29.828 
01:00	54.2	54.2	54.2	73	45.7	4	12	248	0.00	29.825 
01:05	53.9	53.9	53.9	75	46.2	4	12	248	0.00	29.825 
01:10	53.6	53.6	53.6	77	46.6	2	7	248	0.00	29.825 
01:15	53.2	53.2	53.2	80	47.2	3	11	248	0.01	29.822 
01:20	52.8	52.8	52.8	82	47.5	3	9	248	0.00	29.822 
01:25	52.3	52.3	52.3	83	47.3	2	6	225	0.00	29.822 
01:30	52.2	52.2	52.2	85	47.8	2	9	225	0.00	29.822 
01:35	51.9	51.9	51.9	86	47.8	2	9	248	0.01	29.822 
01:40	51.9	51.9	51.9	87	48.2	3	11	270	0.00	29.822 
01:45	51.7	51.7	51.7	88	48.3	4	9	248	0.01	29.817 
01:50	51.7	51.7	51.7	88	48.3	2	7	225	0.01	29.817 
01:55	51.7	51.7	51.7	89	48.6	4	11	225	0.01	29.817 
02:00	51.7	51.7	51.7	90	48.9	2	6	248	0.01	29.812 
02:05	51.7	51.7	51.7	90	48.9	3	9	248	0.00	29.812 
02:10	51.7	51.7	51.7	91	49.2	2	9	248	0.00	29.812 
02:15	51.7	51.7	51.7	91	49.2	4	11	248	0.00	29.808 
02:20	51.7	51.7	51.7	92	49.5	3	9	248	0.00	29.808 
02:25	51.9	51.9	51.9	92	49.6	3	12	248	0.00	29.808 
02:30	51.9	51.9	51.9	92	49.6	3	6	248	0.00	29.806 
02:35	52.0	52.0	52.0	92	49.7	3	8	248	0.00	29.806 
02:40	52.0	52.0	52.0	92	49.7	3	8	248	0.01	29.806 
02:45	52.0	52.0	52.0	92	49.7	2	7	248	0.00	29.805 
02:50	52.0	52.0	52.0	92	49.7	3	9	248	0.00	29.805 
02:55	52.2	52.2	52.2	92	49.9	4	10	248	0.00	29.805 
03:00	52.2	52.2	52.2	92	49.9	3	6	248	0.00	29.805 
03:05	52.2	52.2	52.2	92	49.9	2	5	248	0.00	29.805 
03:10	52.3	52.3	52.3	92	50.0	3	10	248	0.00	29.805 
03:15	52.3	52.3	52.3	92	50.0	3	7	248	0.00	29.801 
03:20	52.3	52.3	52.3	92	50.0	3	7	248	0.00	29.801 
03:25	52.3	52.3	52.3	91	49.8	3	8	248	0.00	29.801 
03:30	52.3	52.3	52.3	91	49.8	4	9	248	0.00	29.804 
03:35	52.5	52.5	52.5	90	49.7	4	10	248	0.00	29.804 
03:40	52.5	52.5	52.5	90	49.7	4	12	248	0.00	29.804 
03:45	52.3	52.3	52.3	89	49.2	5	10	270	0.00	29.802 
03:50	52.3	52.3	52.3	88	48.9	4	11	248	0.00	29.802 
03:55	52.2	52.2	52.2	88	48.8	3	7	248	0.00	29.802 
04:00	52.0	52.0	52.0	87	48.3	3	7	270	0.00	29.805 
04:05	51.9	51.9	51.9	87	48.2	3	17	270	0.00	29.805 
04:10	51.7	51.7	51.7	86	47.6	3	7	248	0.00	29.805 
04:15	51.3	51.3	51.3	84	46.6	5	13	270	0.00	29.816 
04:20	50.2	50.2	50.2	79	43.9	6	13	270	0.00	29.816 
04:25	49.1	47.8	49.1	77	42.2	4	10	270	0.00	29.816 
04:30	48.0	46.6	48.0	77	41.1	4	11	270	0.00	29.827 
04:35	47.3	47.3	47.3	78	40.8	3	7	270	0.00	29.827 
04:40	46.4	43.4	46.4	76	39.3	6	10	270	0.00	29.827 
04:45	45.5	42.9	45.5	76	38.4	5	10	270	0.00	29.844 
04:50	44.9	44.9	44.9	77	38.1	3	9	270	0.00	29.844 
04:55	44.6	44.6	44.6	78	38.2	2	5	248	0.00	29.844 
05:00	44.3	42.3	44.3	79	38.2	4	6	270	0.00	29.846 
05:05	44.1	44.1	44.1	80	38.3	3	7	248	0.00	29.846 
05:10	43.6	43.6	43.6	80	37.8	3	10	248	0.00	29.846 
05:15	43.2	43.2	43.2	80	37.5	3	6	248	0.00	29.853 
05:20	42.6	40.3	42.6	80	36.9	4	11	248	0.00	29.853 
05:25	42.2	42.2	42.2	80	36.5	3	5	248	0.00	29.853 
05:30	41.8	39.4	41.8	80	36.1	4	11	248	0.00	29.857 
05:35	41.3	38.8	41.3	80	35.6	4	12	270	0.00	29.857 
05:40	41.1	38.6	41.1	79	35.1	4	7	248	0.00	29.857 
05:45	40.8	40.8	40.8	79	34.8	3	7	248	0.00	29.864 
05:50	40.5	40.5	40.5	79	34.5	3	9	248	0.00	29.864 
05:55	40.2	40.2	40.2	80	34.5	3	7	248	0.00	29.864 
06:00	40.2	40.2	40.2	81	34.8	3	8	270	0.00	29.869 
06:05	40.1	40.1	40.1	81	34.7	3	10	270	0.00	29.869 
06:10	39.9	37.2	39.9	80	34.2	4	7	248	0.00	29.869 
06:15	39.8	37.1	39.8	80	34.1	4	10	248	0.00	29.873 
06:20	39.6	36.9	39.6	80	33.9	4	8	248	0.00	29.873 
06:25	39.3	36.5	39.3	79	33.3	4	12	292	0.00	29.873 
06:30	39.2	39.2	39.2	80	33.6	2	5	248	0.00	29.881 
06:35	38.9	38.9	38.9	81	33.6	2	5	248	0.00	29.881 
06:40	38.9	38.9	38.9	81	33.6	2	6	225	0.00	29.881 
06:45	38.9	38.9	38.9	82	33.9	2	5	248	0.00	29.885 
06:50	38.8	38.8	38.8	82	33.8	2	5	270	0.00	29.885 
06:55	38.6	38.6	38.6	82	33.6	3	9	248	0.00	29.885 
07:00	38.5	38.5	38.5	82	33.5	3	9	248	0.00	29.885 
07:05	38.2	38.2	38.2	82	33.2	3	11	248	0.00	29.885 
07:10	37.9	37.9	37.9	82	32.9	2	10	248	0.00	29.885 
07:15	37.8	37.8	37.8	82	32.8	3	6	248	0.00	29.888 
07:20	37.6	37.6	37.6	82	32.6	2	4	248	0.00	29.888 
07:25	37.5	37.5	37.5	81	32.2	2	6	248	0.00	29.888 
07:30	37.2	37.2	37.2	81	31.9	3	7	248	0.00	29.888 
07:35	37.0	37.0	37.0	81	31.7	3	10	248	0.00	29.888 
07:40	36.8	36.8	36.8	81	31.5	3	7	248	0.00	29.888 
07:45	36.6	36.6	36.6	80	31.0	3	7	248	0.00	29.891 
07:50	36.5	36.5	36.5	80	30.9	2	6	248	0.00	29.891 
07:55	36.5	36.5	36.5	80	30.9	3	6	248	0.00	29.891 
08:00	36.6	36.6	36.6	81	31.3	2	7	248	0.00	29.895 
08:05	36.8	36.8	36.8	80	31.2	2	9	248	0.00	29.895 
08:10	36.8	36.8	36.8	81	31.5	2	6	248	0.00	29.895 
08:15	36.9	33.7	36.9	80	31.3	4	9	248	0.00	29.903 
08:20	36.9	36.9	36.9	80	31.3	3	6	248	0.00	29.903 
08:25	36.9	36.9	36.9	80	31.3	3	7	248	0.00	29.903 
08:30	36.9	36.9	36.9	80	31.3	3	11	248	0.00	29.902 
08:35	37.0	37.0	37.0	80	31.4	3	8	248	0.00	29.902 
08:40	37.0	37.0	37.0	80	31.4	3	10	248	0.00	29.902 
08:45	37.2	37.2	37.2	80	31.6	2	6	248	0.00	29.900 
08:50	37.2	37.2	37.2	79	31.3	3	8	248	0.00	29.900 
08:55	37.2	37.2	37.2	79	31.3	3	10	248	0.00	29.900 
09:00	37.3	34.2	37.3	79	31.4	4	10	248	0.00	29.900 
09:05	37.3	37.3	37.3	79	31.4	3	6	248	0.00	29.900 
09:10	37.3	37.3	37.3	78	31.1	3	6	248	0.00	29.900 
09:15	37.3	34.2	37.3	77	30.8	4	9	270	0.00	29.898 
09:20	37.3	34.2	37.3	77	30.8	4	8	270	0.00	29.898 
09:25	37.2	33.2	37.2	76	30.3	5	10	270	0.00	29.898 
09:30	37.2	33.2	37.2	75	30.0	5	10	270	0.00	29.904 
09:35	37.2	33.2	37.2	75	30.0	5	15	248	0.00	29.904 
09:40	37.2	34.1	37.2	74	29.7	4	11	270	0.00	29.904 
09:45	37.2	34.1	37.2	75	30.0	4	12	270	0.00	29.907 
09:50	37.0	33.9	37.0	74	29.5	4	9	270	0.00	29.907 
09:55	37.0	32.9	37.0	74	29.5	5	10	270	0.00	29.907 
10:00	37.0	33.9	37.0	73	29.2	4	7	270	0.00	29.905 
10:05	37.0	33.9	37.0	73	29.2	4	9	248	0.00	29.905 
10:10	37.2	34.1	37.2	73	29.4	4	10	270	0.00	29.905 
10:15	37.2	33.2	37.2	72	29.0	5	15	270	0.00	29.906 
10:20	37.2	33.2	37.2	71	28.7	5	11	270	0.00	29.906 
10:25	37.3	33.3	37.3	71	28.8	5	14	270	0.00	29.906 
10:30	37.3	34.2	37.3	71	28.8	4	9	270	0.00	29.905 
10:35	37.3	34.2	37.3	71	28.8	4	9	270	0.00	29.905 
10:40	37.3	34.2	37.3	72	29.1	4	10	248	0.00	29.905 
10:45	37.2	34.1	37.2	73	29.4	4	9	248	0.00	29.909 
10:50	37.0	33.9	37.0	72	28.8	4	8	270	0.00	29.909 
10:55	37.0	33.9	37.0	73	29.2	4	9	270	0.00	29.909 
11:00	36.9	32.8	36.9	72	28.7	5	10	270	0.00	29.918 
11:05	36.6	32.5	36.6	69	27.4	5	9	270	0.00	29.918 
11:10	36.5	33.3	36.5	65	25.9	4	7	270	0.00	29.918 
11:15	36.5	32.4	36.5	65	25.9	5	11	270	0.00	29.919 
11:20	36.5	32.4	36.5	63	25.1	5	10	270	0.00	29.919 
11:25	36.6	33.4	36.6	63	25.2	4	10	270	0.00	29.919 
11:30	36.8	32.7	36.8	62	25.0	5	13	270	0.00	29.920 
11:35	36.6	32.5	36.6	62	24.8	5	7	270	0.00	29.920 
11:40	36.6	32.5	36.6	61	24.4	5	9	270	0.00	29.920 
11:45	36.6	32.5	36.6	62	24.8	5	12	270	0.00	29.919 
11:50	36.6	32.5	36.6	62	24.8	5	16	270	0.00	29.919 
11:55	36.5	32.4	36.5	64	25.5	5	10	270	0.00	29.919 
12:00	36.0	31.8	36.0	68	26.5	5	14	248	0.00	29.920 
12:05	35.8	31.5	35.8	69	26.6	5	12	248	0.00	29.920 
12:10	35.5	31.2	35.5	70	26.7	5	12	248	0.00	29.920 
12:15	35.5	32.1	35.5	71	27.0	4	13	248	0.00	29.918 
12:20	35.5	35.5	35.5	72	27.4	3	6	248	0.00	29.918 
12:25	35.3	35.3	35.3	72	27.2	3	7	270	0.00	29.918 
12:30	35.3	35.3	35.3	71	26.9	3	6	270	0.00	29.919 
12:35	35.2	30.8	35.2	69	26.1	5	11	248	0.00	29.919 
12:40	35.0	35.0	35.0	69	25.9	3	7	270	0.00	29.919 
12:45	34.9	30.5	34.9	69	25.8	5	10	270	0.00	29.920 
12:50	34.7	31.2	34.7	70	25.9	4	11	270	0.00	29.920 
12:55	34.4	29.9	34.4	70	25.6	5	11	248	0.00	29.920 
13:00	34.3	30.7	34.3	70	25.5	4	10	270	0.00	29.924 
13:05	34.1	30.5	34.1	70	25.4	4	9	270	0.00	29.924 
13:10	34.0	29.4	34.0	69	24.9	5	14	270	0.00	29.924 
13:15	33.8	29.2	33.8	69	24.7	5	11	248	0.00	29.938 
13:20	33.7	29.1	33.7	68	24.3	5	10	270	0.00	29.938 
13:25	33.5	28.8	33.5	69	24.4	5	12	270	0.00	29.938 
13:30	33.4	28.7	33.4	68	24.0	5	12	270	0.00	29.944 
13:35	33.2	28.5	33.2	68	23.8	5	11	270	0.00	29.944 
13:40	32.5	27.7	32.5	65	22.1	5	11	270	0.00	29.944 
13:45	31.9	27.0	31.9	63	20.8	5	9	270	0.00	29.958 
13:50	31.8	26.8	31.8	62	20.3	5	10	270	0.00	29.958 
13:55	31.6	27.6	31.6	62	20.1	4	7	270	0.00	29.958 
14:00	31.5	26.5	31.5	62	20.0	5	9	270	0.00	29.968 
14:05	31.5	27.5	31.5	62	20.0	4	11	270	0.00	29.968 
14:10	31.3	27.3	31.3	62	19.8	4	9	270	0.00	29.968 
14:15	31.5	27.5	31.5	62	20.0	4	9	270	0.00	29.974 
14:20	31.5	27.5	31.5	62	20.0	4	10	270	0.00	29.974 
14:25	31.5	26.5	31.5	62	20.0	5	12	270	0.00	29.974 
14:30	31.5	31.5	31.5	62	20.0	3	6	248	0.00	29.980 
14:35	31.5	27.5	31.5	61	19.6	4	10	270	0.00	29.980 
14:40	31.5	31.5	31.5	62	20.0	3	6	270	0.00	29.980 
14:45	31.5	27.5	31.5	62	20.0	4	12	270	0.00	29.990 
14:50	31.3	27.3	31.3	61	19.4	4	10	270	0.00	29.990 
14:55	31.2	27.2	31.2	60	19.0	4	11	270	0.00	29.990 
15:00	31.2	27.2	31.2	60	19.0	4	9	270	0.00	29.995 
15:05	31.3	27.3	31.3	60	19.0	4	8	270	0.00	29.995 
15:10	31.3	27.3	31.3	60	19.0	4	9	270	0.00	29.995 
15:15	31.2	27.2	31.2	60	19.0	4	10	270	0.00	30.005 
15:20	31.2	27.2	31.2	59	18.6	4	7	270	0.00	30.005 
15:25	31.2	27.2	31.2	59	18.6	4	7	270	0.00	30.005 
15:30	31.2	27.2	31.2	60	19.0	4	7	270	0.00	30.010 
15:35	31.2	27.2	31.2	59	18.6	4	9	270	0.00	30.010 
15:40	31.2	27.2	31.2	59	18.6	4	9	270	0.00	30.010 
15:45	31.2	27.2	31.2	59	18.6	4	10	270	0.00	30.023 
15:50	31.2	31.2	31.2	60	19.0	3	7	270	0.00	30.023 
15:55	31.2	31.2	31.2	59	18.6	3	7	248	0.00	30.023 
16:00	31.0	31.0	31.0	59	18.4	3	6	270	0.00	30.028 
16:05	30.9	30.9	30.9	59	18.3	3	8	270	0.00	30.028 
16:10	30.9	26.8	30.9	59	18.3	4	9	270	0.00	30.028 
16:15	30.7	30.7	30.7	59	18.1	3	8	270	0.00	30.045 
16:20	30.7	26.6	30.7	59	18.1	4	10	270	0.00	30.045 
16:25	30.7	30.7	30.7	60	18.5	3	7	270	0.00	30.045 
16:30	30.7	30.7	30.7	59	18.1	3	6	270	0.00	30.050 
16:35	30.7	30.7	30.7	59	18.1	3	5	270	0.00	30.050 
16:40	30.7	30.7	30.7	60	18.5	3	9	248	0.00	30.050 
16:45	30.7	26.6	30.7	60	18.5	4	12	270	0.00	30.061 
16:50	30.7	30.7	30.7	60	18.5	3	7	270	0.00	30.061 
16:55	30.7	30.7	30.7	60	18.5	3	7	270	0.00	30.061 
17:00	30.7	30.7	30.7	60	18.5	3	7	270	0.00	30.063 
17:05	30.7	26.6	30.7	60	18.5	4	7	270	0.00	30.063 
17:10	30.7	30.7	30.7	60	18.5	3	6	248	0.00	30.063 
17:15	30.6	30.6	30.6	60	18.4	3	7	248	0.00	30.076 
17:20	30.6	30.6	30.6	60	18.4	3	6	270	0.00	30.076 
17:25	30.6	30.6	30.6	60	18.4	2	5	248	0.00	30.076 
17:30	30.6	30.6	30.6	60	18.4	3	9	270	0.00	30.082 
17:35	30.6	30.6	30.6	61	18.8	3	6	270	0.00	30.082 
17:40	30.6	30.6	30.6	61	18.8	3	6	270	0.00	30.082 
17:45	30.6	30.6	30.6	62	19.2	2	4	270	0.00	30.087 
17:50	30.6	30.6	30.6	62	19.2	2	5	270	0.00	30.087 
17:55	30.6	30.6	30.6	62	19.2	2	9	248	0.00	30.087 
18:00	30.7	30.7	30.7	62	19.2	2	5	248	0.00	30.094 
18:05	30.7	30.7	30.7	62	19.2	2	5	270	0.00	30.094 
18:10	30.7	30.7	30.7	62	19.2	2	4	248	0.00	30.094 
18:15	30.7	30.7	30.7	62	19.2	2	4	248	0.00	30.098 
18:20	30.7	30.7	30.7	61	18.9	2	4	248	0.00	30.098 
18:25	30.7	30.7	30.7	62	19.2	1	3	248	0.00	30.098 
18:30	30.7	30.7	30.7	62	19.2	3	5	248	0.00	30.101 
18:35	30.7	30.7	30.7	62	19.2	1	4	248	0.00	30.101 
18:40	30.7	30.7	30.7	62	19.2	2	5	270	0.00	30.101 
18:45	30.7	30.7	30.7	62	19.2	2	4	270	0.00	30.102 
18:50	30.7	30.7	30.7	62	19.2	2	4	270	0.00	30.102 
18:55	30.7	30.7	30.7	62	19.2	2	4	248	0.00	30.102 
19:00	30.7	30.7	30.7	62	19.2	2	5	248	0.00	30.110 
19:05	30.7	30.7	30.7	62	19.2	2	6	270	0.00	30.110 
19:10	30.9	30.9	30.9	62	19.4	2	4	248	0.00	30.110 
19:15	30.9	30.9	30.9	62	19.4	2	3	248	0.00	30.116 
19:20	30.9	30.9	30.9	63	19.8	2	4	248	0.00	30.116 
19:25	31.0	31.0	31.0	63	19.9	2	5	270	0.00	30.116 
19:30	31.0	31.0	31.0	63	19.9	1	4	248	0.00	30.121 
19:35	31.0	31.0	31.0	63	19.9	2	5	248	0.00	30.121 
19:40	31.0	31.0	31.0	63	19.9	2	4	248	0.00	30.121 
19:45	30.9	30.9	30.9	63	19.8	1	4	315	0.00	30.125 
19:50	30.9	30.9	30.9	63	19.8	1	4	248	0.00	30.125 
19:55	30.7	30.7	30.7	63	19.6	1	4	248	0.00	30.125 
20:00	30.7	30.7	30.7	64	20.0	1	4	248	0.00	30.126 
20:05	30.7	30.7	30.7	64	20.0	1	4	248	0.00	30.126 
20:10	30.7	30.7	30.7	64	20.0	1	4	248	0.00	30.126 
20:15	30.9	30.9	30.9	64	20.2	1	4	248	0.00	30.126 
20:20	30.7	30.7	30.7	64	20.0	1	5	248	0.00	30.126 
20:25	30.7	30.7	30.7	63	19.6	2	5	248	0.00	30.126 
20:30	30.7	30.7	30.7	63	19.6	2	9	248	0.00	30.128 
20:35	30.6	30.6	30.6	63	19.5	2	5	248	0.00	30.128 
20:40	30.6	30.6	30.6	63	19.5	3	6	248	0.00	30.128 
20:45	30.6	30.6	30.6	63	19.5	1	5	248	0.00	30.130 
20:50	30.6	30.6	30.6	63	19.5	2	5	248	0.00	30.130 
20:55	30.4	30.4	30.4	63	19.3	2	6	248	0.00	30.130 
21:00	30.4	30.4	30.4	63	19.3	2	6	248	0.00	30.131 
21:05	30.4	30.4	30.4	63	19.3	1	5	270	0.00	30.131 
21:10	30.3	30.3	30.3	64	19.6	2	6	248	0.00	30.131 
21:15	30.3	30.3	30.3	63	19.2	3	5	248	0.00	30.130 
21:20	30.3	30.3	30.3	63	19.2	2	4	248	0.00	30.130 
21:25	30.3	30.3	30.3	63	19.2	2	5	248	0.00	30.130 
21:30	30.3	30.3	30.3	63	19.2	3	6	248	0.00	30.132 
21:35	30.1	30.1	30.1	63	19.0	2	5	270	0.00	30.132 
21:40	30.1	30.1	30.1	63	19.0	3	6	248	0.00	30.132 
21:45	30.1	30.1	30.1	63	19.0	2	9	270	0.00	30.131 
21:50	30.1	30.1	30.1	63	19.0	2	5	270	0.00	30.131 
21:55	30.1	30.1	30.1	63	19.0	2	5	248	0.00	30.131 
22:00	30.1	30.1	30.1	63	19.0	2	5	270	0.00	30.131 
22:05	30.1	30.1	30.1	64	19.4	2	5	270	0.00	30.131 
22:10	30.1	30.1	30.1	64	19.4	1	4	248	0.00	30.131 
22:15	30.0	30.0	30.0	64	19.3	2	5	248	0.00	30.131 
22:20	30.0	30.0	30.0	64	19.3	2	4	248	0.00	30.131 
22:25	30.0	30.0	30.0	64	19.3	2	5	248	0.00	30.131 
22:30	30.1	30.1	30.1	64	19.4	2	7	248	0.00	30.127 
22:35	30.0	30.0	30.0	64	19.3	2	6	225	0.00	30.127 
22:40	30.0	30.0	30.0	64	19.3	2	7	248	0.00	30.127 
22:45	30.0	30.0	30.0	64	19.3	2	5	248	0.00	30.130 
22:50	30.0	30.0	30.0	64	19.3	2	7	248	0.00	30.130 
22:55	30.0	30.0	30.0	64	19.3	2	6	248	0.00	30.130 
23:00	29.8	29.8	29.8	64	19.1	2	6	248	0.00	30.128 
23:05	29.8	29.8	29.8	64	19.1	2	4	248	0.00	30.128 
23:10	29.8	29.8	29.8	64	19.1	2	5	248	0.00	30.128 
23:15	29.8	29.8	29.8	64	19.1	2	6	248	0.00	30.127 
23:20	29.8	29.8	29.8	64	19.1	2	6	248	0.00	30.127 
23:25	29.8	29.8	29.8	64	19.1	3	11	248	0.00	30.127 
23:30	29.7	29.7	29.7	64	19.0	2	6	248	0.00	30.125 
23:35	29.7	29.7	29.7	64	19.0	3	10	248	0.00	30.125 
23:40	29.7	29.7	29.7	64	19.0	2	5	248	0.00	30.125 
23:45	29.7	29.7	29.7	65	19.4	3	7	248	0.00	30.125 
23:50	29.7	29.7	29.7	65	19.4	2	4	248	0.00	30.125 
23:55	29.5	29.5	29.5	65	19.2	2	5	248	0.00	30.125 

CoCoRaHS
IN-AL-39
A2 Web Hosting
Creative Commons License
GoDaddy
search engine by freefind advanced

loaded 2018-11-13 16:59:30 • last modified 2010-11-18 10:43:29
Privacy PolicyDisclaimer
• wx.awcolley.com is powered by PmWiki v.2002016 •
• all content (unless otherwise noted) © 2018 A W Colley